sensor_id;sensor_type;location;lat;lon;timestamp;P1;durP1;ratioP1;P2;durP2;ratioP2
6432;SDS011;3249;42.690;23.260;2023-07-08T00:01:17;17.57;;;15.53;;
6432;SDS011;3249;42.690;23.260;2023-07-08T00:03:48;17.37;;;15.63;;
6432;SDS011;3249;42.690;23.260;2023-07-08T00:06:21;17.63;;;16.00;;
6432;SDS011;3249;42.690;23.260;2023-07-08T00:08:51;18.53;;;16.83;;
6432;SDS011;3249;42.690;23.260;2023-07-08T00:11:21;17.83;;;16.03;;
6432;SDS011;3249;42.690;23.260;2023-07-08T00:13:51;18.00;;;16.20;;
6432;SDS011;3249;42.690;23.260;2023-07-08T00:16:19;18.57;;;16.67;;
6432;SDS011;3249;42.690;23.260;2023-07-08T00:18:49;19.17;;;17.17;;
6432;SDS011;3249;42.690;23.260;2023-07-08T00:21:20;19.73;;;17.10;;
6432;SDS011;3249;42.690;23.260;2023-07-08T00:23:50;18.77;;;16.77;;
6432;SDS011;3249;42.690;23.260;2023-07-08T00:26:21;20.03;;;16.90;;
6432;SDS011;3249;42.690;23.260;2023-07-08T00:28:54;18.93;;;17.10;;
6432;SDS011;3249;42.690;23.260;2023-07-08T00:31:23;20.10;;;18.20;;
6432;SDS011;3249;42.690;23.260;2023-07-08T00:33:53;19.13;;;17.33;;
6432;SDS011;3249;42.690;23.260;2023-07-08T00:36:26;19.10;;;17.30;;
6432;SDS011;3249;42.690;23.260;2023-07-08T00:38:57;18.97;;;17.23;;
6432;SDS011;3249;42.690;23.260;2023-07-08T00:41:27;19.10;;;17.20;;
6432;SDS011;3249;42.690;23.260;2023-07-08T00:44:00;19.53;;;17.57;;
6432;SDS011;3249;42.690;23.260;2023-07-08T00:46:31;18.27;;;16.47;;
6432;SDS011;3249;42.690;23.260;2023-07-08T00:49:11;18.57;;;16.87;;
6432;SDS011;3249;42.690;23.260;2023-07-08T00:51:52;18.80;;;16.40;;
6432;SDS011;3249;42.690;23.260;2023-07-08T00:54:22;19.27;;;17.33;;
6432;SDS011;3249;42.690;23.260;2023-07-08T00:56:51;18.90;;;17.20;;
6432;SDS011;3249;42.690;23.260;2023-07-08T00:59:26;17.50;;;16.00;;
6432;SDS011;3249;42.690;23.260;2023-07-08T01:01:58;20.23;;;16.73;;
6432;SDS011;3249;42.690;23.260;2023-07-08T01:04:31;17.30;;;15.57;;
6432;SDS011;3249;42.690;23.260;2023-07-08T01:07:05;17.80;;;16.20;;
6432;SDS011;3249;42.690;23.260;2023-07-08T01:09:36;18.00;;;16.27;;
6432;SDS011;3249;42.690;23.260;2023-07-08T01:12:08;17.80;;;16.20;;
6432;SDS011;3249;42.690;23.260;2023-07-08T01:14:41;17.93;;;16.30;;
6432;SDS011;3249;42.690;23.260;2023-07-08T01:17:12;20.10;;;18.40;;
6432;SDS011;3249;42.690;23.260;2023-07-08T01:19:41;17.33;;;15.83;;
6432;SDS011;3249;42.690;23.260;2023-07-08T01:22:15;18.20;;;16.70;;
6432;SDS011;3249;42.690;23.260;2023-07-08T01:24:44;17.67;;;15.90;;
6432;SDS011;3249;42.690;23.260;2023-07-08T01:27:16;17.53;;;15.93;;
6432;SDS011;3249;42.690;23.260;2023-07-08T01:29:46;18.17;;;16.57;;
6432;SDS011;3249;42.690;23.260;2023-07-08T01:32:16;18.07;;;16.17;;
6432;SDS011;3249;42.690;23.260;2023-07-08T01:34:46;16.47;;;14.97;;
6432;SDS011;3249;42.690;23.260;2023-07-08T01:37:29;16.27;;;14.67;;
6432;SDS011;3249;42.690;23.260;2023-07-08T01:42:51;16.77;;;15.17;;
6432;SDS011;3249;42.690;23.260;2023-07-08T01:45:21;16.50;;;15.10;;
6432;SDS011;3249;42.690;23.260;2023-07-08T01:47:54;17.13;;;14.93;;
6432;SDS011;3249;42.690;23.260;2023-07-08T01:50:26;16.07;;;14.57;;
6432;SDS011;3249;42.690;23.260;2023-07-08T01:53:00;16.27;;;14.80;;
6432;SDS011;3249;42.690;23.260;2023-07-08T01:55:35;17.27;;;15.57;;
6432;SDS011;3249;42.690;23.260;2023-07-08T01:58:04;16.80;;;15.30;;
6432;SDS011;3249;42.690;23.260;2023-07-08T02:00:33;15.63;;;14.27;;
6432;SDS011;3249;42.690;23.260;2023-07-08T02:03:03;16.20;;;14.60;;
6432;SDS011;3249;42.690;23.260;2023-07-08T02:05:31;14.93;;;13.63;;
6432;SDS011;3249;42.690;23.260;2023-07-08T02:08:04;16.67;;;15.07;;
6432;SDS011;3249;42.690;23.260;2023-07-08T02:10:33;16.17;;;14.77;;
6432;SDS011;3249;42.690;23.260;2023-07-08T02:13:02;16.07;;;14.67;;
6432;SDS011;3249;42.690;23.260;2023-07-08T02:15:31;15.73;;;14.23;;
6432;SDS011;3249;42.690;23.260;2023-07-08T02:18:01;16.80;;;14.97;;
6432;SDS011;3249;42.690;23.260;2023-07-08T02:20:30;15.60;;;14.20;;
6432;SDS011;3249;42.690;23.260;2023-07-08T02:22:59;14.80;;;13.40;;
6432;SDS011;3249;42.690;23.260;2023-07-08T02:25:31;17.03;;;15.33;;
6432;SDS011;3249;42.690;23.260;2023-07-08T02:28:00;15.73;;;14.23;;
6432;SDS011;3249;42.690;23.260;2023-07-08T02:30:30;16.20;;;14.67;;
6432;SDS011;3249;42.690;23.260;2023-07-08T02:32:59;16.03;;;14.53;;
6432;SDS011;3249;42.690;23.260;2023-07-08T02:35:28;16.00;;;14.30;;
6432;SDS011;3249;42.690;23.260;2023-07-08T02:37:58;15.67;;;14.17;;
6432;SDS011;3249;42.690;23.260;2023-07-08T02:40:31;15.47;;;13.87;;
6432;SDS011;3249;42.690;23.260;2023-07-08T02:43:01;17.83;;;16.27;;
6432;SDS011;3249;42.690;23.260;2023-07-08T02:45:30;16.50;;;15.03;;
6432;SDS011;3249;42.690;23.260;2023-07-08T02:47:59;16.00;;;14.53;;
6432;SDS011;3249;42.690;23.260;2023-07-08T02:50:28;16.43;;;14.83;;
6432;SDS011;3249;42.690;23.260;2023-07-08T02:52:57;17.57;;;15.83;;
6432;SDS011;3249;42.690;23.260;2023-07-08T02:55:27;16.73;;;15.23;;
6432;SDS011;3249;42.690;23.260;2023-07-08T02:57:59;17.37;;;15.57;;
6432;SDS011;3249;42.690;23.260;2023-07-08T03:00:28;17.03;;;15.40;;
6432;SDS011;3249;42.690;23.260;2023-07-08T03:02:57;16.90;;;15.40;;
6432;SDS011;3249;42.690;23.260;2023-07-08T03:05:26;16.47;;;14.97;;
6432;SDS011;3249;42.690;23.260;2023-07-08T03:07:56;17.10;;;15.60;;
6432;SDS011;3249;42.690;23.260;2023-07-08T03:10:25;17.57;;;15.97;;
6432;SDS011;3249;42.690;23.260;2023-07-08T03:12:55;16.80;;;15.37;;
6432;SDS011;3249;42.690;23.260;2023-07-08T03:15:26;16.57;;;14.80;;
6432;SDS011;3249;42.690;23.260;2023-07-08T03:17:55;16.80;;;15.17;;
6432;SDS011;3249;42.690;23.260;2023-07-08T03:20:25;16.53;;;14.90;;
6432;SDS011;3249;42.690;23.260;2023-07-08T03:22:58;16.57;;;14.57;;
6432;SDS011;3249;42.690;23.260;2023-07-08T03:25:27;15.63;;;13.40;;
6432;SDS011;3249;42.690;23.260;2023-07-08T03:27:56;14.90;;;13.53;;
6432;SDS011;3249;42.690;23.260;2023-07-08T03:30:29;13.13;;;11.83;;
6432;SDS011;3249;42.690;23.260;2023-07-08T03:32:58;13.17;;;12.10;;
6432;SDS011;3249;42.690;23.260;2023-07-08T03:35:26;12.10;;;11.10;;
6432;SDS011;3249;42.690;23.260;2023-07-08T03:37:55;11.97;;;10.97;;
6432;SDS011;3249;42.690;23.260;2023-07-08T03:40:25;12.60;;;11.47;;
6432;SDS011;3249;42.690;23.260;2023-07-08T03:42:53;12.20;;;11.10;;
6432;SDS011;3249;42.690;23.260;2023-07-08T03:45:25;12.90;;;11.57;;
6432;SDS011;3249;42.690;23.260;2023-07-08T03:47:57;13.77;;;12.47;;
6432;SDS011;3249;42.690;23.260;2023-07-08T03:50:29;13.83;;;11.30;;
6432;SDS011;3249;42.690;23.260;2023-07-08T03:52:58;14.73;;;11.03;;
6432;SDS011;3249;42.690;23.260;2023-07-08T03:55:50;12.67;;;11.43;;
6432;SDS011;3249;42.690;23.260;2023-07-08T03:58:19;15.77;;;13.13;;
6432;SDS011;3249;42.690;23.260;2023-07-08T04:00:50;12.33;;;11.07;;
6432;SDS011;3249;42.690;23.260;2023-07-08T04:03:22;11.63;;;10.53;;
6432;SDS011;3249;42.690;23.260;2023-07-08T04:05:51;11.53;;;9.70;;
6432;SDS011;3249;42.690;23.260;2023-07-08T04:08:20;9.60;;;8.83;;
6432;SDS011;3249;42.690;23.260;2023-07-08T04:10:49;10.60;;;9.63;;
6432;SDS011;3249;42.690;23.260;2023-07-08T04:13:18;10.47;;;9.20;;
6432;SDS011;3249;42.690;23.260;2023-07-08T04:15:49;10.00;;;9.27;;
6432;SDS011;3249;42.690;23.260;2023-07-08T04:18:26;10.53;;;9.73;;
6432;SDS011;3249;42.690;23.260;2023-07-08T04:20:55;10.00;;;9.10;;
6432;SDS011;3249;42.690;23.260;2023-07-08T04:23:24;10.27;;;8.97;;
6432;SDS011;3249;42.690;23.260;2023-07-08T04:25:54;11.73;;;9.40;;
6432;SDS011;3249;42.690;23.260;2023-07-08T04:28:26;10.67;;;9.57;;
6432;SDS011;3249;42.690;23.260;2023-07-08T04:30:55;10.10;;;9.20;;
6432;SDS011;3249;42.690;23.260;2023-07-08T04:33:26;10.20;;;9.40;;
6432;SDS011;3249;42.690;23.260;2023-07-08T04:35:56;10.40;;;9.40;;
6432;SDS011;3249;42.690;23.260;2023-07-08T04:38:25;11.37;;;9.30;;
6432;SDS011;3249;42.690;23.260;2023-07-08T04:40:55;10.30;;;9.30;;
6432;SDS011;3249;42.690;23.260;2023-07-08T04:43:24;11.70;;;10.10;;
6432;SDS011;3249;42.690;23.260;2023-07-08T04:45:55;10.93;;;9.97;;
6432;SDS011;3249;42.690;23.260;2023-07-08T04:48:27;10.13;;;9.33;;
6432;SDS011;3249;42.690;23.260;2023-07-08T04:50:58;11.13;;;10.23;;
6432;SDS011;3249;42.690;23.260;2023-07-08T04:53:27;12.33;;;11.10;;
6432;SDS011;3249;42.690;23.260;2023-07-08T04:55:56;11.63;;;10.53;;
6432;SDS011;3249;42.690;23.260;2023-07-08T04:58:25;10.87;;;10.03;;
6432;SDS011;3249;42.690;23.260;2023-07-08T05:00:54;11.40;;;10.40;;
6432;SDS011;3249;42.690;23.260;2023-07-08T05:03:23;11.00;;;10.07;;
6432;SDS011;3249;42.690;23.260;2023-07-08T05:05:55;14.03;;;10.20;;
6432;SDS011;3249;42.690;23.260;2023-07-08T05:08:24;11.00;;;10.10;;
6432;SDS011;3249;42.690;23.260;2023-07-08T05:10:53;11.00;;;10.00;;
6432;SDS011;3249;42.690;23.260;2023-07-08T05:13:23;10.77;;;9.70;;
6432;SDS011;3249;42.690;23.260;2023-07-08T05:15:52;10.67;;;9.57;;
6432;SDS011;3249;42.690;23.260;2023-07-08T05:18:20;10.37;;;9.37;;
6432;SDS011;3249;42.690;23.260;2023-07-08T05:20:50;12.33;;;9.20;;
6432;SDS011;3249;42.690;23.260;2023-07-08T05:23:22;10.77;;;9.87;;
6432;SDS011;3249;42.690;23.260;2023-07-08T05:25:52;9.60;;;8.90;;
6432;SDS011;3249;42.690;23.260;2023-07-08T05:28:21;10.47;;;9.47;;
6432;SDS011;3249;42.690;23.260;2023-07-08T05:30:52;9.30;;;8.40;;
6432;SDS011;3249;42.690;23.260;2023-07-08T05:33:22;9.80;;;8.93;;
6432;SDS011;3249;42.690;23.260;2023-07-08T05:35:51;9.83;;;9.03;;
6432;SDS011;3249;42.690;23.260;2023-07-08T05:38:22;9.43;;;8.63;;
6432;SDS011;3249;42.690;23.260;2023-07-08T05:40:53;9.60;;;8.80;;
6432;SDS011;3249;42.690;23.260;2023-07-08T05:43:25;10.27;;;9.10;;
6432;SDS011;3249;42.690;23.260;2023-07-08T05:45:57;8.87;;;8.17;;
6432;SDS011;3249;42.690;23.260;2023-07-08T05:48:27;10.03;;;9.03;;
6432;SDS011;3249;42.690;23.260;2023-07-08T05:50:56;9.10;;;8.30;;
6432;SDS011;3249;42.690;23.260;2023-07-08T05:53:28;9.53;;;8.63;;
6432;SDS011;3249;42.690;23.260;2023-07-08T05:55:58;9.37;;;8.47;;
6432;SDS011;3249;42.690;23.260;2023-07-08T05:58:27;10.13;;;9.23;;
6432;SDS011;3249;42.690;23.260;2023-07-08T06:00:56;10.30;;;9.37;;
6432;SDS011;3249;42.690;23.260;2023-07-08T06:03:26;10.57;;;9.47;;
6432;SDS011;3249;42.690;23.260;2023-07-08T06:05:55;10.40;;;9.57;;
6432;SDS011;3249;42.690;23.260;2023-07-08T06:08:24;13.00;;;9.37;;
6432;SDS011;3249;42.690;23.260;2023-07-08T06:10:55;12.67;;;9.97;;
6432;SDS011;3249;42.690;23.260;2023-07-08T06:13:24;10.57;;;8.60;;
6432;SDS011;3249;42.690;23.260;2023-07-08T06:15:54;9.63;;;8.77;;
6432;SDS011;3249;42.690;23.260;2023-07-08T06:18:23;10.23;;;9.40;;
6432;SDS011;3249;42.690;23.260;2023-07-08T06:20:52;9.23;;;8.33;;
6432;SDS011;3249;42.690;23.260;2023-07-08T06:23:21;9.70;;;8.70;;
6432;SDS011;3249;42.690;23.260;2023-07-08T06:25:50;9.33;;;8.17;;
6432;SDS011;3249;42.690;23.260;2023-07-08T06:28:22;9.23;;;8.33;;
6432;SDS011;3249;42.690;23.260;2023-07-08T06:30:52;8.80;;;8.00;;
6432;SDS011;3249;42.690;23.260;2023-07-08T06:33:21;9.50;;;7.57;;
6432;SDS011;3249;42.690;23.260;2023-07-08T06:35:50;8.83;;;8.03;;
6432;SDS011;3249;42.690;23.260;2023-07-08T06:38:19;9.83;;;7.30;;
6432;SDS011;3249;42.690;23.260;2023-07-08T06:40:48;8.00;;;7.30;;
6432;SDS011;3249;42.690;23.260;2023-07-08T06:43:18;8.40;;;7.60;;
6432;SDS011;3249;42.690;23.260;2023-07-08T06:45:52;9.70;;;6.80;;
6432;SDS011;3249;42.690;23.260;2023-07-08T06:48:21;9.50;;;7.67;;
6432;SDS011;3249;42.690;23.260;2023-07-08T06:50:51;8.17;;;7.47;;
6432;SDS011;3249;42.690;23.260;2023-07-08T06:53:20;8.60;;;7.70;;
6432;SDS011;3249;42.690;23.260;2023-07-08T06:55:49;8.57;;;7.77;;
6432;SDS011;3249;42.690;23.260;2023-07-08T06:58:19;8.30;;;7.60;;
6432;SDS011;3249;42.690;23.260;2023-07-08T07:00:47;7.83;;;7.13;;
6432;SDS011;3249;42.690;23.260;2023-07-08T07:03:19;9.33;;;7.67;;
6432;SDS011;3249;42.690;23.260;2023-07-08T07:05:48;7.77;;;7.03;;
6432;SDS011;3249;42.690;23.260;2023-07-08T07:08:17;8.53;;;7.67;;
6432;SDS011;3249;42.690;23.260;2023-07-08T07:10:46;8.90;;;8.10;;
6432;SDS011;3249;42.690;23.260;2023-07-08T07:13:15;8.70;;;7.50;;
6432;SDS011;3249;42.690;23.260;2023-07-08T07:15:44;9.33;;;8.20;;
6432;SDS011;3249;42.690;23.260;2023-07-08T07:18:13;9.10;;;8.37;;
6432;SDS011;3249;42.690;23.260;2023-07-08T07:20:49;11.23;;;8.63;;
6432;SDS011;3249;42.690;23.260;2023-07-08T07:23:21;11.80;;;9.07;;
6432;SDS011;3249;42.690;23.260;2023-07-08T07:25:50;10.90;;;8.53;;
6432;SDS011;3249;42.690;23.260;2023-07-08T07:28:19;9.47;;;8.73;;
6432;SDS011;3249;42.690;23.260;2023-07-08T07:30:54;9.40;;;8.27;;
6432;SDS011;3249;42.690;23.260;2023-07-08T07:33:25;8.07;;;7.30;;
6432;SDS011;3249;42.690;23.260;2023-07-08T07:35:59;8.43;;;7.60;;
6432;SDS011;3249;42.690;23.260;2023-07-08T07:38:29;9.57;;;8.87;;
6432;SDS011;3249;42.690;23.260;2023-07-08T07:40:58;8.23;;;7.37;;
6432;SDS011;3249;42.690;23.260;2023-07-08T07:43:31;8.73;;;7.87;;
6432;SDS011;3249;42.690;23.260;2023-07-08T07:46:01;8.07;;;7.30;;
6432;SDS011;3249;42.690;23.260;2023-07-08T07:48:31;8.17;;;7.50;;
6432;SDS011;3249;42.690;23.260;2023-07-08T07:51:03;8.70;;;7.80;;
6432;SDS011;3249;42.690;23.260;2023-07-08T07:53:36;7.50;;;6.90;;
6432;SDS011;3249;42.690;23.260;2023-07-08T07:56:05;8.63;;;7.83;;
6432;SDS011;3249;42.690;23.260;2023-07-08T07:58:34;8.53;;;7.83;;
6432;SDS011;3249;42.690;23.260;2023-07-08T08:01:04;8.13;;;7.53;;
6432;SDS011;3249;42.690;23.260;2023-07-08T08:03:33;8.23;;;7.43;;
6432;SDS011;3249;42.690;23.260;2023-07-08T08:06:04;8.33;;;7.53;;
6432;SDS011;3249;42.690;23.260;2023-07-08T08:08:33;8.10;;;7.40;;
6432;SDS011;3249;42.690;23.260;2023-07-08T08:11:02;7.73;;;7.03;;
6432;SDS011;3249;42.690;23.260;2023-07-08T08:13:31;8.67;;;7.97;;
6432;SDS011;3249;42.690;23.260;2023-07-08T08:16:01;13.93;;;7.73;;
6432;SDS011;3249;42.690;23.260;2023-07-08T08:18:32;11.17;;;9.90;;
6432;SDS011;3249;42.690;23.260;2023-07-08T08:21:00;8.57;;;7.80;;
6432;SDS011;3249;42.690;23.260;2023-07-08T08:23:32;8.40;;;7.50;;
6432;SDS011;3249;42.690;23.260;2023-07-08T08:26:05;6.93;;;6.33;;
6432;SDS011;3249;42.690;23.260;2023-07-08T08:28:34;7.87;;;7.27;;
6432;SDS011;3249;42.690;23.260;2023-07-08T08:31:03;7.83;;;7.13;;
6432;SDS011;3249;42.690;23.260;2023-07-08T08:33:32;8.03;;;7.40;;
6432;SDS011;3249;42.690;23.260;2023-07-08T08:36:04;8.20;;;7.33;;
6432;SDS011;3249;42.690;23.260;2023-07-08T08:38:33;8.73;;;7.90;;
6432;SDS011;3249;42.690;23.260;2023-07-08T08:41:03;8.17;;;7.53;;
6432;SDS011;3249;42.690;23.260;2023-07-08T08:43:34;8.13;;;7.57;;
6432;SDS011;3249;42.690;23.260;2023-07-08T08:46:06;8.57;;;7.67;;
6432;SDS011;3249;42.690;23.260;2023-07-08T08:48:41;8.30;;;7.63;;
6432;SDS011;3249;42.690;23.260;2023-07-08T08:51:21;7.70;;;7.10;;
6432;SDS011;3249;42.690;23.260;2023-07-08T08:53:54;7.70;;;7.10;;
6432;SDS011;3249;42.690;23.260;2023-07-08T08:56:27;7.70;;;7.10;;
6432;SDS011;3249;42.690;23.260;2023-07-08T08:58:58;7.40;;;6.90;;
6432;SDS011;3249;42.690;23.260;2023-07-08T09:01:36;8.13;;;7.27;;
6432;SDS011;3249;42.690;23.260;2023-07-08T09:04:08;7.83;;;7.23;;
6432;SDS011;3249;42.690;23.260;2023-07-08T09:06:43;7.90;;;7.10;;
6432;SDS011;3249;42.690;23.260;2023-07-08T09:09:14;8.37;;;7.57;;
6432;SDS011;3249;42.690;23.260;2023-07-08T09:11:49;7.87;;;7.30;;
6432;SDS011;3249;42.690;23.260;2023-07-08T09:14:24;7.40;;;6.83;;
6432;SDS011;3249;42.690;23.260;2023-07-08T09:16:56;8.47;;;7.73;;
6432;SDS011;3249;42.690;23.260;2023-07-08T09:19:38;8.37;;;7.73;;
6432;SDS011;3249;42.690;23.260;2023-07-08T09:22:14;8.50;;;7.27;;
6432;SDS011;3249;42.690;23.260;2023-07-08T09:24:48;8.27;;;7.67;;
6432;SDS011;3249;42.690;23.260;2023-07-08T09:27:19;8.80;;;7.63;;
6432;SDS011;3249;42.690;23.260;2023-07-08T09:29:49;8.17;;;7.47;;
6432;SDS011;3249;42.690;23.260;2023-07-08T09:32:22;7.13;;;6.63;;
6432;SDS011;3249;42.690;23.260;2023-07-08T09:34:55;7.37;;;6.83;;
6432;SDS011;3249;42.690;23.260;2023-07-08T09:37:34;8.13;;;7.33;;
6432;SDS011;3249;42.690;23.260;2023-07-08T09:40:09;7.37;;;6.67;;
6432;SDS011;3249;42.690;23.260;2023-07-08T09:42:44;7.10;;;6.40;;
6432;SDS011;3249;42.690;23.260;2023-07-08T09:45:19;6.77;;;6.37;;
6432;SDS011;3249;42.690;23.260;2023-07-08T09:47:52;7.37;;;6.77;;
6432;SDS011;3249;42.690;23.260;2023-07-08T09:50:22;7.50;;;6.87;;
6432;SDS011;3249;42.690;23.260;2023-07-08T09:52:56;7.27;;;6.67;;
6432;SDS011;3249;42.690;23.260;2023-07-08T09:55:27;6.70;;;5.97;;
6432;SDS011;3249;42.690;23.260;2023-07-08T09:57:57;6.33;;;5.93;;
6432;SDS011;3249;42.690;23.260;2023-07-08T10:00:31;7.30;;;6.40;;
6432;SDS011;3249;42.690;23.260;2023-07-08T10:03:03;6.67;;;6.17;;
6432;SDS011;3249;42.690;23.260;2023-07-08T10:05:40;6.97;;;6.40;;
6432;SDS011;3249;42.690;23.260;2023-07-08T10:08:15;6.33;;;5.80;;
6432;SDS011;3249;42.690;23.260;2023-07-08T10:10:46;6.97;;;6.47;;
6432;SDS011;3249;42.690;23.260;2023-07-08T10:13:33;6.47;;;5.97;;
6432;SDS011;3249;42.690;23.260;2023-07-08T10:16:11;6.63;;;6.13;;
6432;SDS011;3249;42.690;23.260;2023-07-08T10:18:43;7.13;;;6.43;;
6432;SDS011;3249;42.690;23.260;2023-07-08T10:21:13;6.50;;;6.00;;
6432;SDS011;3249;42.690;23.260;2023-07-08T10:23:57;6.67;;;6.03;;
6432;SDS011;3249;42.690;23.260;2023-07-08T10:26:45;6.50;;;5.90;;
6432;SDS011;3249;42.690;23.260;2023-07-08T10:29:18;6.47;;;5.97;;
6432;SDS011;3249;42.690;23.260;2023-07-08T10:32:00;6.57;;;5.97;;
6432;SDS011;3249;42.690;23.260;2023-07-08T10:34:36;5.33;;;4.93;;
6432;SDS011;3249;42.690;23.260;2023-07-08T10:37:21;6.13;;;5.67;;
6432;SDS011;3249;42.690;23.260;2023-07-08T10:40:16;6.40;;;5.90;;
6432;SDS011;3249;42.690;23.260;2023-07-08T10:45:58;7.50;;;5.53;;
6432;SDS011;3249;42.690;23.260;2023-07-08T10:48:43;5.60;;;5.17;;
6432;SDS011;3249;42.690;23.260;2023-07-08T10:51:23;6.00;;;5.40;;
6432;SDS011;3249;42.690;23.260;2023-07-08T10:57:14;5.60;;;5.20;;
6432;SDS011;3249;42.690;23.260;2023-07-08T11:00:00;6.83;;;6.23;;
6432;SDS011;3249;42.690;23.260;2023-07-08T11:02:47;5.97;;;5.40;;
6432;SDS011;3249;42.690;23.260;2023-07-08T11:05:32;5.80;;;5.13;;
6432;SDS011;3249;42.690;23.260;2023-07-08T11:08:10;5.80;;;5.40;;
6432;SDS011;3249;42.690;23.260;2023-07-08T11:10:49;5.50;;;5.10;;
6432;SDS011;3249;42.690;23.260;2023-07-08T11:13:24;5.93;;;5.43;;
6432;SDS011;3249;42.690;23.260;2023-07-08T11:15:57;5.70;;;5.20;;
6432;SDS011;3249;42.690;23.260;2023-07-08T11:18:35;5.77;;;5.37;;
6432;SDS011;3249;42.690;23.260;2023-07-08T11:21:14;5.77;;;5.27;;
6432;SDS011;3249;42.690;23.260;2023-07-08T11:23:50;5.77;;;4.97;;
6432;SDS011;3249;42.690;23.260;2023-07-08T11:26:25;5.90;;;5.40;;
6432;SDS011;3249;42.690;23.260;2023-07-08T11:29:05;5.40;;;5.00;;
6432;SDS011;3249;42.690;23.260;2023-07-08T11:31:46;5.57;;;5.20;;
6432;SDS011;3249;42.690;23.260;2023-07-08T11:34:17;6.33;;;5.80;;
6432;SDS011;3249;42.690;23.260;2023-07-08T11:36:47;5.80;;;5.40;;
6432;SDS011;3249;42.690;23.260;2023-07-08T11:39:26;7.30;;;6.20;;
6432;SDS011;3249;42.690;23.260;2023-07-08T11:44:57;5.23;;;4.83;;
6432;SDS011;3249;42.690;23.260;2023-07-08T11:47:33;5.70;;;5.20;;
6432;SDS011;3249;42.690;23.260;2023-07-08T11:50:11;4.97;;;4.67;;
6432;SDS011;3249;42.690;23.260;2023-07-08T11:52:51;6.53;;;5.67;;
6432;SDS011;3249;42.690;23.260;2023-07-08T11:55:24;5.70;;;5.20;;
6432;SDS011;3249;42.690;23.260;2023-07-08T11:57:59;5.47;;;5.00;;
6432;SDS011;3249;42.690;23.260;2023-07-08T12:00:32;4.80;;;4.40;;
6432;SDS011;3249;42.690;23.260;2023-07-08T12:03:18;5.37;;;4.87;;
6432;SDS011;3249;42.690;23.260;2023-07-08T12:05:49;5.03;;;4.73;;
6432;SDS011;3249;42.690;23.260;2023-07-08T12:08:18;5.17;;;4.77;;
6432;SDS011;3249;42.690;23.260;2023-07-08T12:10:48;5.10;;;4.70;;
6432;SDS011;3249;42.690;23.260;2023-07-08T12:13:21;4.70;;;4.40;;
6432;SDS011;3249;42.690;23.260;2023-07-08T12:15:56;4.90;;;4.40;;
6432;SDS011;3249;42.690;23.260;2023-07-08T12:18:28;4.87;;;4.47;;
6432;SDS011;3249;42.690;23.260;2023-07-08T12:21:03;5.50;;;5.00;;
6432;SDS011;3249;42.690;23.260;2023-07-08T12:23:33;5.37;;;4.70;;
6432;SDS011;3249;42.690;23.260;2023-07-08T12:26:04;4.93;;;4.63;;
6432;SDS011;3249;42.690;23.260;2023-07-08T12:28:36;5.20;;;4.40;;
6432;SDS011;3249;42.690;23.260;2023-07-08T12:31:09;4.80;;;4.40;;
6432;SDS011;3249;42.690;23.260;2023-07-08T12:33:46;4.37;;;4.07;;
6432;SDS011;3249;42.690;23.260;2023-07-08T12:36:17;7.63;;;5.00;;
6432;SDS011;3249;42.690;23.260;2023-07-08T12:38:50;4.83;;;4.43;;
6432;SDS011;3249;42.690;23.260;2023-07-08T12:41:25;5.20;;;4.80;;
6432;SDS011;3249;42.690;23.260;2023-07-08T12:43:55;4.37;;;4.03;;
6432;SDS011;3249;42.690;23.260;2023-07-08T12:46:29;6.43;;;4.33;;
6432;SDS011;3249;42.690;23.260;2023-07-08T12:48:58;6.63;;;4.40;;
6432;SDS011;3249;42.690;23.260;2023-07-08T12:51:27;5.60;;;4.37;;
6432;SDS011;3249;42.690;23.260;2023-07-08T12:53:57;4.87;;;4.40;;
6432;SDS011;3249;42.690;23.260;2023-07-08T12:56:26;5.33;;;4.50;;
6432;SDS011;3249;42.690;23.260;2023-07-08T12:58:55;5.03;;;4.63;;
6432;SDS011;3249;42.690;23.260;2023-07-08T13:01:29;4.60;;;4.20;;
6432;SDS011;3249;42.690;23.260;2023-07-08T13:04:01;4.73;;;4.43;;
6432;SDS011;3249;42.690;23.260;2023-07-08T13:06:33;5.03;;;4.63;;
6432;SDS011;3249;42.690;23.260;2023-07-08T13:09:05;4.00;;;3.60;;
6432;SDS011;3249;42.690;23.260;2023-07-08T13:11:37;4.43;;;4.03;;
6432;SDS011;3249;42.690;23.260;2023-07-08T13:14:11;5.43;;;3.87;;
6432;SDS011;3249;42.690;23.260;2023-07-08T13:16:45;4.87;;;4.07;;
6432;SDS011;3249;42.690;23.260;2023-07-08T13:19:15;4.53;;;3.70;;
6432;SDS011;3249;42.690;23.260;2023-07-08T13:21:49;5.03;;;3.77;;
6432;SDS011;3249;42.690;23.260;2023-07-08T13:24:21;4.70;;;3.87;;
6432;SDS011;3249;42.690;23.260;2023-07-08T13:26:50;4.20;;;3.80;;
6432;SDS011;3249;42.690;23.260;2023-07-08T13:29:19;4.43;;;4.13;;
6432;SDS011;3249;42.690;23.260;2023-07-08T13:31:55;4.17;;;3.87;;
6432;SDS011;3249;42.690;23.260;2023-07-08T13:34:31;4.90;;;3.87;;
6432;SDS011;3249;42.690;23.260;2023-07-08T13:37:00;4.07;;;3.77;;
6432;SDS011;3249;42.690;23.260;2023-07-08T13:39:31;4.80;;;4.27;;
6432;SDS011;3249;42.690;23.260;2023-07-08T13:42:03;5.57;;;3.87;;
6432;SDS011;3249;42.690;23.260;2023-07-08T13:44:41;4.77;;;4.00;;
6432;SDS011;3249;42.690;23.260;2023-07-08T13:47:22;4.57;;;3.90;;
6432;SDS011;3249;42.690;23.260;2023-07-08T13:49:56;6.73;;;4.00;;
6432;SDS011;3249;42.690;23.260;2023-07-08T13:52:32;4.70;;;4.30;;
6432;SDS011;3249;42.690;23.260;2023-07-08T13:55:06;4.73;;;4.27;;
6432;SDS011;3249;42.690;23.260;2023-07-08T13:57:44;4.33;;;4.03;;
6432;SDS011;3249;42.690;23.260;2023-07-08T14:00:14;4.37;;;3.97;;
6432;SDS011;3249;42.690;23.260;2023-07-08T14:02:45;4.13;;;3.83;;
6432;SDS011;3249;42.690;23.260;2023-07-08T14:05:14;5.83;;;4.17;;
6432;SDS011;3249;42.690;23.260;2023-07-08T14:07:47;4.27;;;3.87;;
6432;SDS011;3249;42.690;23.260;2023-07-08T14:10:16;5.70;;;4.47;;
6432;SDS011;3249;42.690;23.260;2023-07-08T14:12:45;4.70;;;4.30;;
6432;SDS011;3249;42.690;23.260;2023-07-08T14:15:14;4.67;;;4.27;;
6432;SDS011;3249;42.690;23.260;2023-07-08T14:17:46;4.90;;;4.37;;
6432;SDS011;3249;42.690;23.260;2023-07-08T14:20:17;3.77;;;3.47;;
6432;SDS011;3249;42.690;23.260;2023-07-08T14:22:46;4.10;;;3.70;;
6432;SDS011;3249;42.690;23.260;2023-07-08T14:25:16;4.93;;;4.27;;
6432;SDS011;3249;42.690;23.260;2023-07-08T14:27:46;5.47;;;4.03;;
6432;SDS011;3249;42.690;23.260;2023-07-08T14:30:15;5.03;;;4.07;;
6432;SDS011;3249;42.690;23.260;2023-07-08T14:32:47;4.97;;;3.73;;
6432;SDS011;3249;42.690;23.260;2023-07-08T14:35:22;3.97;;;3.67;;
6432;SDS011;3249;42.690;23.260;2023-07-08T14:37:52;3.80;;;3.50;;
6432;SDS011;3249;42.690;23.260;2023-07-08T14:40:25;6.43;;;3.90;;
6432;SDS011;3249;42.690;23.260;2023-07-08T14:42:57;4.53;;;4.23;;
6432;SDS011;3249;42.690;23.260;2023-07-08T14:45:28;4.03;;;3.63;;
6432;SDS011;3249;42.690;23.260;2023-07-08T14:48:04;5.13;;;4.53;;
6432;SDS011;3249;42.690;23.260;2023-07-08T14:50:36;4.60;;;4.20;;
6432;SDS011;3249;42.690;23.260;2023-07-08T14:53:05;4.63;;;4.23;;
6432;SDS011;3249;42.690;23.260;2023-07-08T14:55:35;4.50;;;4.10;;
6432;SDS011;3249;42.690;23.260;2023-07-08T14:58:04;5.23;;;4.30;;
6432;SDS011;3249;42.690;23.260;2023-07-08T15:00:34;7.33;;;4.27;;
6432;SDS011;3249;42.690;23.260;2023-07-08T15:03:06;3.90;;;3.60;;
6432;SDS011;3249;42.690;23.260;2023-07-08T15:05:36;4.40;;;4.10;;
6432;SDS011;3249;42.690;23.260;2023-07-08T15:08:05;5.37;;;4.20;;
6432;SDS011;3249;42.690;23.260;2023-07-08T15:10:33;4.73;;;4.43;;
6432;SDS011;3249;42.690;23.260;2023-07-08T15:13:05;4.17;;;3.87;;
6432;SDS011;3249;42.690;23.260;2023-07-08T15:15:37;4.67;;;4.07;;
6432;SDS011;3249;42.690;23.260;2023-07-08T15:18:13;4.43;;;4.10;;
6432;SDS011;3249;42.690;23.260;2023-07-08T15:20:43;4.67;;;4.13;;
6432;SDS011;3249;42.690;23.260;2023-07-08T15:23:13;4.37;;;4.07;;
6432;SDS011;3249;42.690;23.260;2023-07-08T15:25:43;4.40;;;4.10;;
6432;SDS011;3249;42.690;23.260;2023-07-08T15:28:15;5.63;;;4.33;;
6432;SDS011;3249;42.690;23.260;2023-07-08T15:30:49;7.33;;;4.40;;
6432;SDS011;3249;42.690;23.260;2023-07-08T15:33:21;9.90;;;6.37;;